createdAt,value
2023-04-24T00:00:30.036Z,52.51
2023-04-24T00:03:36.822Z,52.16
2023-04-24T00:06:44.038Z,51.61
2023-04-24T00:09:53.080Z,51.73
2023-04-24T00:12:58.587Z,51.84
2023-04-24T00:16:04.915Z,51.88
2023-04-24T00:19:10.675Z,51.92
2023-04-24T00:22:17.814Z,52.73
2023-04-24T00:25:26.223Z,52.75
2023-04-24T00:28:32.584Z,52.47
2023-04-24T00:31:38.508Z,53.34
2023-04-24T00:34:45.741Z,53.92
2023-04-24T00:37:51.528Z,53.94
2023-04-24T00:41:01.189Z,54.80
2023-04-24T00:44:06.941Z,54.83
2023-04-24T00:47:15.285Z,54.59
2023-04-24T00:50:21.008Z,54.15
2023-04-24T00:53:27.346Z,54.35
2023-04-24T00:56:35.931Z,54.80
2023-04-24T00:59:42.769Z,54.96
2023-04-24T01:02:50.925Z,54.07
2023-04-24T01:05:59.910Z,53.93
2023-04-24T01:09:05.932Z,53.67
2023-04-24T01:12:15.181Z,54.02
2023-04-24T01:15:20.664Z,54.13
2023-04-24T01:18:28.080Z,53.77
2023-04-24T01:21:39.185Z,54.37
2023-04-24T01:24:48.425Z,54.53
2023-04-24T01:27:54.152Z,54.87
2023-04-24T01:31:00.904Z,54.41
2023-04-24T01:34:09.152Z,54.10
2023-04-24T01:37:15.652Z,53.88
2023-04-24T01:40:24.274Z,54.52
2023-04-24T01:43:30.996Z,54.69
2023-04-24T01:46:38.278Z,54.41
2023-04-24T01:49:44.997Z,53.91
2023-04-24T01:52:52.857Z,53.98
2023-04-24T01:56:01.961Z,52.48
2023-04-24T01:59:08.432Z,52.76
2023-04-24T02:02:14.079Z,53.33
2023-04-24T02:05:21.031Z,52.66
2023-04-24T02:08:26.893Z,53.34
2023-04-24T02:11:36.000Z,52.30
2023-04-24T02:14:41.661Z,52.60
2023-04-24T02:17:50.219Z,51.81
2023-04-24T02:20:56.102Z,52.26
2023-04-24T02:24:02.574Z,52.41
2023-04-24T02:27:11.062Z,52.20
2023-04-24T02:30:18.427Z,52.03
2023-04-24T02:33:24.520Z,51.19
2023-04-24T02:36:31.561Z,51.89
2023-04-24T02:39:37.031Z,51.21
2023-04-24T02:42:46.407Z,51.04
2023-04-24T02:45:52.127Z,51.83
2023-04-24T02:48:58.672Z,51.25
2023-04-24T02:52:04.234Z,51.34
2023-04-24T02:55:12.313Z,51.20
2023-04-24T02:58:21.170Z,50.72
2023-04-24T03:01:27.599Z,51.13
2023-04-24T03:04:33.552Z,51.16
2023-04-24T03:07:40.079Z,50.63
2023-04-24T03:10:47.580Z,49.87
2023-04-24T03:13:57.780Z,50.68
2023-04-24T03:17:03.683Z,50.03
2023-04-24T03:20:12.228Z,50.45
2023-04-24T03:23:18.273Z,50.65
2023-04-24T03:26:26.144Z,50.98
2023-04-24T03:29:46.392Z,50.04
2023-04-24T03:32:53.853Z,51.01
2023-04-24T03:36:04.357Z,50.90
2023-04-24T03:39:19.368Z,50.81
2023-04-24T03:42:31.235Z,51.30
2023-04-24T03:45:40.495Z,50.25
2023-04-24T03:48:46.975Z,50.78
2023-04-24T03:51:55.711Z,49.95
2023-04-24T03:55:04.433Z,49.76
2023-04-24T03:58:19.145Z,49.59
2023-04-24T04:01:29.534Z,49.56
2023-04-24T04:04:47.098Z,49.44
2023-04-24T04:07:52.949Z,48.88
2023-04-24T04:10:59.398Z,49.53
2023-04-24T04:14:05.239Z,49.36
2023-04-24T04:17:16.460Z,49.21
2023-04-24T04:20:22.076Z,49.27
2023-04-24T04:23:29.383Z,49.52
2023-04-24T04:26:52.427Z,49.36
2023-04-24T04:30:12.704Z,48.32
2023-04-24T04:33:32.980Z,48.68
2023-04-24T04:36:41.390Z,48.57
2023-04-24T04:39:59.600Z,48.48
2023-04-24T04:43:11.359Z,47.74
2023-04-24T04:46:23.064Z,47.27
2023-04-24T04:49:48.066Z,47.29
2023-04-24T04:52:59.794Z,46.98
2023-04-24T04:56:12.618Z,47.19
2023-04-24T04:59:20.769Z,46.44
2023-04-24T05:02:29.886Z,45.80
2023-04-24T05:05:41.780Z,45.20
2023-04-24T05:08:52.438Z,44.29
2023-04-24T05:12:08.775Z,44.30
2023-04-24T05:15:23.324Z,43.75
2023-04-24T05:18:28.805Z,42.94
2023-04-24T05:21:38.389Z,42.42
2023-04-24T05:24:44.195Z,42.87
2023-04-24T05:28:03.309Z,43.82
2023-04-24T05:31:09.235Z,42.78
2023-04-24T05:34:17.347Z,42.37
2023-04-24T05:37:27.410Z,42.63
2023-04-24T05:40:34.021Z,42.65
2023-04-24T05:43:39.574Z,42.21
2023-04-24T05:46:46.169Z,42.32
2023-04-24T05:49:53.725Z,41.84
2023-04-24T05:53:03.495Z,41.51
2023-04-24T05:56:13.133Z,40.86
2023-04-24T05:59:20.860Z,41.24
2023-04-24T06:02:27.409Z,40.66
2023-04-24T06:05:34.305Z,41.41
2023-04-24T06:08:45.474Z,41.62
2023-04-24T06:11:54.182Z,40.91
2023-04-24T06:15:02.643Z,40.76
2023-04-24T06:18:27.707Z,39.68
2023-04-24T06:21:33.167Z,38.91
2023-04-24T06:24:43.564Z,38.19
2023-04-24T06:27:49.165Z,37.60
2023-04-24T06:30:55.564Z,37.63
2023-04-24T06:34:01.259Z,36.57
2023-04-24T06:37:07.833Z,36.57
2023-04-24T06:40:16.943Z,35.63
2023-04-24T06:43:23.235Z,35.83
2023-04-24T06:46:30.139Z,34.87
2023-04-24T06:49:36.675Z,35.34
2023-04-24T06:52:42.182Z,35.15
2023-04-24T06:55:51.828Z,35.68
2023-04-24T06:58:57.564Z,35.06
2023-04-24T07:02:04.368Z,35.45
2023-04-24T07:05:10.421Z,35.33
2023-04-24T07:08:18.456Z,35.02
2023-04-24T07:11:30.569Z,34.77
2023-04-24T07:14:37.094Z,34.56
2023-04-24T07:17:45.084Z,34.36
2023-04-24T07:20:51.707Z,34.02
2023-04-24T07:23:57.433Z,33.10
2023-04-24T07:27:06.797Z,33.93
2023-04-24T07:30:13.802Z,34.05
2023-04-24T07:33:20.317Z,33.67
2023-04-24T07:36:27.248Z,33.47
2023-04-24T07:39:33.652Z,33.85
2023-04-24T07:42:42.803Z,33.78
2023-04-24T07:45:49.518Z,32.96
2023-04-24T07:49:11.630Z,33.21
2023-04-24T07:52:19.192Z,32.20
2023-04-24T07:55:27.351Z,32.35
2023-04-24T07:58:37.400Z,32.79
2023-04-24T08:01:42.965Z,33.21
2023-04-24T08:04:49.683Z,32.46
2023-04-24T08:07:55.763Z,32.29
2023-04-24T08:11:02.200Z,32.59
2023-04-24T08:14:10.589Z,32.32
2023-04-24T08:17:17.190Z,31.91
2023-04-24T08:20:22.961Z,32.14
2023-04-24T08:23:30.120Z,32.18
2023-04-24T08:26:35.812Z,31.88
2023-04-24T08:29:45.291Z,32.02
2023-04-24T08:32:51.959Z,31.74
2023-04-24T08:35:58.450Z,31.87
2023-04-24T08:39:04.097Z,31.63
2023-04-24T08:42:10.654Z,31.41
2023-04-24T08:45:19.596Z,31.67
2023-04-24T08:48:31.807Z,31.70
2023-04-24T08:51:38.246Z,31.04
2023-04-24T08:54:48.149Z,31.02
2023-04-24T08:57:57.436Z,31.53
2023-04-24T09:01:07.469Z,30.81
2023-04-24T09:04:15.967Z,30.86
2023-04-24T09:07:29.138Z,30.82
2023-04-24T09:10:35.010Z,31.01
2023-04-24T09:13:42.860Z,31.16
2023-04-24T09:16:52.543Z,31.70
2023-04-24T09:19:59.644Z,30.74
2023-04-24T09:23:05.994Z,31.32
2023-04-24T09:26:15.389Z,30.65
2023-04-24T09:29:22.962Z,30.68
2023-04-24T09:32:33.321Z,30.77
2023-04-24T09:35:38.876Z,31.25
2023-04-24T09:38:46.049Z,30.77
2023-04-24T09:41:55.858Z,31.11
2023-04-24T09:45:08.317Z,31.63
2023-04-24T09:48:23.317Z,31.49
2023-04-24T09:51:41.092Z,30.76
2023-04-24T09:54:56.649Z,31.19
2023-04-24T09:58:06.543Z,31.38
2023-04-24T10:01:12.149Z,31.24
2023-04-24T10:04:27.334Z,31.04
2023-04-24T10:07:32.951Z,31.09
2023-04-24T10:10:44.188Z,31.63
2023-04-24T10:13:50.882Z,31.67
2023-04-24T10:17:00.159Z,31.45
2023-04-24T10:20:11.036Z,30.85
2023-04-24T10:23:20.496Z,30.53
2023-04-24T10:26:28.063Z,30.31
2023-04-24T10:29:36.782Z,29.68
2023-04-24T10:32:42.604Z,30.87
2023-04-24T10:35:56.826Z,30.49
2023-04-24T10:39:07.716Z,29.09
2023-04-24T10:42:19.802Z,28.46
2023-04-24T10:45:27.979Z,29.12
2023-04-24T10:48:36.819Z,28.88
2023-04-24T10:51:54.521Z,28.90
2023-04-24T10:55:06.301Z,28.25
2023-04-24T10:58:11.829Z,29.36
2023-04-24T11:01:33.514Z,29.67
2023-04-24T11:04:39.339Z,29.60
2023-04-24T11:08:29.991Z,30.57
2023-04-24T11:11:37.227Z,31.13
2023-04-24T11:15:05.953Z,31.55
2023-04-24T11:18:11.702Z,32.10
2023-04-24T11:21:21.371Z,32.74
2023-04-24T11:24:36.208Z,33.37
2023-04-24T11:27:47.377Z,33.65
2023-04-24T11:30:54.016Z,33.50
2023-04-24T11:34:01.466Z,34.29
2023-04-24T11:37:07.422Z,34.22
2023-04-24T11:40:21.420Z,33.99
2023-04-24T11:43:28.989Z,34.57
2023-04-24T11:46:36.204Z,34.74
2023-04-24T11:49:42.448Z,34.93
2023-04-24T11:52:51.852Z,35.63
2023-04-24T11:56:00.134Z,35.36
2023-04-24T11:59:08.679Z,35.46
2023-04-24T12:02:26.061Z,34.66
2023-04-24T12:05:34.109Z,34.85
2023-04-24T12:08:40.887Z,33.69
2023-04-24T12:12:01.120Z,33.59
2023-04-24T12:15:13.684Z,33.99
2023-04-24T12:18:20.916Z,33.64
2023-04-24T12:21:28.534Z,33.86
2023-04-24T12:24:35.590Z,34.51
2023-04-24T12:27:43.996Z,35.05
2023-04-24T12:30:52.850Z,35.05
2023-04-24T12:33:59.689Z,35.16
2023-04-24T12:37:15.046Z,34.73
2023-04-24T12:40:23.526Z,34.28
2023-04-24T12:43:33.087Z,34.21
2023-04-24T12:46:38.558Z,35.05
2023-04-24T12:49:45.132Z,34.69
2023-04-24T12:52:50.793Z,35.30
2023-04-24T12:55:57.208Z,35.31
2023-04-24T12:59:05.749Z,35.71
2023-04-24T13:02:13.502Z,35.88
2023-04-24T13:05:19.052Z,36.16
2023-04-24T13:08:25.364Z,36.54
2023-04-24T13:11:30.784Z,36.36
2023-04-24T13:14:41.002Z,36.16
2023-04-24T13:17:46.603Z,36.41
2023-04-24T13:20:53.143Z,36.23
2023-04-24T13:23:58.643Z,36.61
2023-04-24T13:27:06.483Z,36.56
2023-04-24T13:30:16.540Z,37.30
2023-04-24T13:33:23.026Z,37.25
2023-04-24T13:36:31.426Z,37.17
2023-04-24T13:39:38.111Z,38.05
2023-04-24T13:42:44.810Z,37.88
2023-04-24T13:45:54.008Z,38.46
2023-04-24T13:48:59.744Z,38.88
2023-04-24T13:52:07.281Z,39.19
2023-04-24T13:55:13.285Z,39.42
2023-04-24T13:58:19.758Z,39.84
2023-04-24T14:01:29.145Z,40.07
2023-04-24T14:04:35.625Z,40.61
2023-04-24T14:07:41.304Z,40.74
2023-04-24T14:10:47.660Z,41.19
2023-04-24T14:13:54.322Z,42.09
2023-04-24T14:17:03.433Z,42.20
2023-04-24T14:20:10.695Z,43.22
2023-04-24T14:23:18.577Z,43.25
2023-04-24T14:26:25.932Z,44.41
2023-04-24T14:29:34.839Z,44.18
2023-04-24T14:32:43.764Z,44.68
2023-04-24T14:35:50.682Z,44.98
2023-04-24T14:38:56.170Z,45.38
2023-04-24T14:42:02.716Z,45.07
2023-04-24T14:45:09.479Z,44.54
2023-04-24T14:48:19.080Z,44.67
2023-04-24T14:51:24.615Z,44.45
2023-04-24T14:54:31.948Z,44.48
2023-04-24T14:57:37.925Z,44.14
2023-04-24T15:00:44.318Z,44.57
2023-04-24T15:03:53.247Z,44.18
2023-04-24T15:06:59.939Z,44.98
2023-04-24T15:10:05.592Z,44.45
2023-04-24T15:13:12.250Z,44.41
2023-04-24T15:16:18.037Z,44.17
2023-04-24T15:19:27.549Z,44.51
2023-04-24T15:22:33.449Z,45.01
2023-04-24T15:25:39.888Z,44.70
2023-04-24T15:28:45.473Z,44.54
2023-04-24T15:31:52.432Z,45.09
2023-04-24T15:35:08.409Z,44.95
2023-04-24T15:38:16.540Z,44.69
2023-04-24T15:41:22.457Z,45.36
2023-04-24T15:44:29.095Z,45.16
2023-04-24T15:47:36.576Z,44.98
2023-04-24T15:50:45.786Z,45.16
2023-04-24T15:53:51.610Z,45.04
2023-04-24T15:56:58.069Z,45.08
2023-04-24T16:00:04.660Z,44.49
2023-04-24T16:03:18.044Z,44.72
2023-04-24T16:06:28.079Z,45.37
2023-04-24T16:09:34.847Z,45.35
2023-04-24T16:12:41.168Z,45.32
2023-04-24T16:15:48.498Z,44.89
2023-04-24T16:18:54.438Z,45.45
2023-04-24T16:22:04.029Z,45.56
2023-04-24T16:25:11.101Z,45.41
2023-04-24T16:28:17.718Z,45.84
2023-04-24T16:31:23.310Z,46.15
2023-04-24T16:34:29.816Z,46.19
2023-04-24T16:37:39.145Z,46.55
2023-04-24T16:40:45.956Z,47.51
2023-04-24T16:43:51.840Z,46.75
2023-04-24T16:46:58.238Z,46.85
2023-04-24T16:50:03.805Z,46.77
2023-04-24T16:53:12.903Z,47.79
2023-04-24T16:56:19.131Z,48.14
2023-04-24T16:59:26.497Z,47.95
2023-04-24T17:02:32.100Z,48.48
2023-04-24T17:05:38.576Z,48.52
2023-04-24T17:08:47.042Z,48.62
2023-04-24T17:11:53.678Z,48.88
2023-04-24T17:14:59.080Z,49.31
2023-04-24T17:18:06.055Z,49.19
2023-04-24T17:21:11.542Z,49.82
2023-04-24T17:24:20.976Z,49.94
2023-04-24T17:27:26.480Z,49.62
2023-04-24T17:30:33.387Z,50.03
2023-04-24T17:33:38.853Z,49.67
2023-04-24T17:36:45.634Z,49.83
2023-04-24T17:39:53.967Z,49.97
2023-04-24T17:43:00.562Z,50.75
2023-04-24T17:46:07.744Z,50.42
2023-04-24T17:49:14.094Z,50.39
2023-04-24T17:52:19.569Z,50.38
2023-04-24T17:55:29.097Z,50.99
2023-04-24T17:58:35.304Z,50.99
2023-04-24T18:01:41.746Z,51.17
2023-04-24T18:04:47.391Z,51.05
2023-04-24T18:07:53.820Z,51.87
2023-04-24T18:11:02.291Z,51.29
2023-04-24T18:14:08.699Z,51.49
2023-04-24T18:17:14.504Z,51.69
2023-04-24T18:20:22.693Z,52.11
2023-04-24T18:23:28.223Z,52.94
2023-04-24T18:26:37.338Z,52.77
2023-04-24T18:29:43.409Z,53.35
2023-04-24T18:32:50.189Z,53.40
2023-04-24T18:35:56.163Z,53.19
2023-04-24T18:39:02.695Z,53.84
2023-04-24T18:42:11.366Z,54.00
2023-04-24T18:45:18.006Z,53.75
2023-04-24T18:48:23.502Z,54.37
2023-04-24T18:51:30.607Z,54.61
2023-04-24T18:54:37.089Z,54.88
2023-04-24T18:57:46.583Z,55.51
2023-04-24T19:00:52.144Z,56.19
2023-04-24T19:03:59.337Z,56.10
2023-04-24T19:07:05.109Z,57.31
2023-04-24T19:10:14.091Z,57.33
2023-04-24T19:13:23.368Z,57.65
2023-04-24T19:16:29.979Z,58.41
2023-04-24T19:19:35.498Z,58.76
2023-04-24T19:22:42.666Z,59.08
2023-04-24T19:25:48.098Z,59.86
2023-04-24T19:28:58.008Z,60.31
2023-04-24T19:32:03.492Z,60.43
2023-04-24T19:35:10.593Z,60.21
2023-04-24T19:38:16.404Z,60.88
2023-04-24T19:41:23.063Z,61.01
2023-04-24T19:44:31.358Z,61.01
2023-04-24T19:47:38.109Z,62.28
2023-04-24T19:50:44.469Z,62.68
2023-04-24T19:53:50.988Z,62.43
2023-04-24T19:56:57.200Z,63.82
2023-04-24T20:00:07.193Z,65.61
2023-04-24T20:03:25.417Z,65.56
2023-04-24T20:06:38.100Z,66.92
2023-04-24T20:09:43.826Z,66.65
2023-04-24T20:12:50.228Z,67.75
2023-04-24T20:15:58.824Z,68.76
2023-04-24T20:19:05.309Z,68.88
2023-04-24T20:22:13.198Z,69.65
2023-04-24T20:25:20.932Z,68.53
2023-04-24T20:28:26.636Z,69.67
2023-04-24T20:31:36.094Z,69.05
2023-04-24T20:34:42.629Z,69.15
2023-04-24T20:37:48.968Z,68.91
2023-04-24T20:40:58.007Z,69.98
2023-04-24T20:44:05.919Z,70.48
2023-04-24T20:47:15.107Z,70.47
2023-04-24T20:50:21.564Z,70.47
2023-04-24T20:53:27.696Z,71.63
2023-04-24T20:56:34.505Z,70.70
2023-04-24T20:59:41.355Z,71.40
2023-04-24T21:02:50.581Z,72.74
2023-04-24T21:05:56.223Z,72.84
2023-04-24T21:09:02.828Z,73.05
2023-04-24T21:12:08.888Z,73.31
2023-04-24T21:15:15.397Z,73.22
2023-04-24T21:18:24.111Z,73.93
2023-04-24T21:21:31.081Z,74.14
2023-04-24T21:24:37.058Z,73.44
2023-04-24T21:27:44.990Z,74.11
2023-04-24T21:30:50.603Z,74.10
2023-04-24T21:33:59.684Z,73.67
2023-04-24T21:37:05.418Z,75.01
2023-04-24T21:40:16.156Z,75.07
2023-04-24T21:43:27.939Z,74.93
2023-04-24T21:46:40.364Z,74.01
2023-04-24T21:49:48.836Z,73.44
2023-04-24T21:52:55.163Z,72.74
2023-04-24T21:56:01.146Z,72.75
2023-04-24T21:59:07.758Z,71.10
2023-04-24T22:03:25.938Z,72.07
2023-04-24T22:07:12.639Z,70.37
2023-04-24T22:10:19.671Z,71.10
2023-04-24T22:13:26.094Z,70.89
2023-04-24T22:16:31.621Z,70.87
2023-04-24T22:19:37.950Z,70.90
2023-04-24T22:22:46.066Z,70.32
2023-04-24T22:25:52.628Z,70.81
2023-04-24T22:28:57.938Z,71.04
2023-04-24T22:32:04.381Z,70.07
2023-04-24T22:35:11.965Z,70.21
2023-04-24T22:38:21.121Z,70.64
2023-04-24T22:41:26.998Z,70.04
2023-04-24T22:44:33.324Z,69.46
2023-04-24T22:47:38.929Z,70.07
2023-04-24T22:50:45.489Z,70.10
2023-04-24T22:53:53.517Z,69.52
2023-04-24T22:57:00.440Z,69.61
2023-04-24T23:00:11.465Z,69.80
2023-04-24T23:03:18.021Z,70.29
2023-04-24T23:06:23.659Z,70.28
2023-04-24T23:09:32.730Z,70.54
2023-04-24T23:12:38.492Z,70.90
2023-04-24T23:15:44.881Z,70.35
2023-04-24T23:18:51.040Z,69.93
2023-04-24T23:21:57.592Z,69.56
2023-04-24T23:25:06.180Z,70.72
2023-04-24T23:28:12.387Z,70.08
2023-04-24T23:31:17.791Z,69.84
2023-04-24T23:34:23.929Z,70.19
2023-04-24T23:37:29.513Z,70.87
2023-04-24T23:40:38.576Z,70.98
2023-04-24T23:43:43.905Z,70.82
2023-04-24T23:46:50.354Z,70.67
2023-04-24T23:49:55.752Z,70.40
2023-04-24T23:53:02.848Z,70.17
2023-04-24T23:56:11.462Z,70.08
2023-04-24T23:59:20.914Z,69.87
